Jackpot

Texas Poker Multi Jackpot System

Kini Telah hadir Jackpot SUPER ROYAL FLUSH

Kini Telah hadir Jackpot 2000 (khusus table VIP keatas).

Ikutilah global jackpot yang tersedia di system kami, dengan system jackpot terbaru dan pertama di indonesia, anda dapat membeli jackpot dengan harga 100 rupiah saja dan menangkan hadiahnya hingga puluhan juta rupiah.

Jackpot bukanlah suatu keharusan untuk dibeli, namun kami memberikan suatu fitur tambahan untuk member tercinta dari www.bapapoker.com.

Terdapat tiga pilihan harga jackpot yang bisa anda beli yaitu :100,500,1000 dan 2000(khusus table VIP Keatas) rupiah.

Hadiah dari Multi jackpot system www.bapapoker.com

  1. full house x 10 harga jackpot yang anda beli.
      (contoh:anda membeli 1000 maka:1000 X10 = 10.000)
  2. four of kind x 250 harga jackpot yang anda beli
      (contoh:anda membeli 1000 maka:1000 X250 = 250.000)
  3. Straight flush x 1200
      (contoh:anda membeli 1000 maka:1000 X1200 = 1.200.000)
  4. Royal flush x 10000 harga jackpot yang anda beli
      (contoh:anda membeli 1000 maka:1000 X10000 = 10.000.000)
  5. SUPER ROYAL FLUSH x 30000 harga jackpot yang anda beli
      (contoh:anda membeli 1000 maka:1000 X30000 = 30.000.000)

Kondisi kartu

  1. full house adalah kondisi kartu dimana kartu anda dan kartu tengah dengan total 7 kartu bisa mendapatkan nilai 5 kartu dengan kombinasi 1 tris(three of kind) dan 1 pair, contoh 3 kartu 10 dan 2 kartu 5
  2. Four of kind adalah kondisi kartu dimana kartu anda dan kartu tengah dengan total 7 kartu bisa mendapatkan nilai 5 kartu dengan kombinasi 4 kartu yang sama jumlah dan 1 kartu apapun juga contoh anda mendapatkan 4 buah kartu angka 3 dan 1 kartu apapun.
  3. Staright flush adalah kondisi kartu dimana kartu anda dan kartu tengah dengan total 7 kartu bisa mendapatkan nilai 5 kartu dengan kombinasi seri / staright dengan kembang yang sama contoh : urutan kartu dari angka 5, 6, 7, 8 , 9 10 dengan kembang yg sama misalnya as hati
  4. Royal flush adalah kondisi kartu dimana kartu anda dan kartu tengah dengan total 7 kartu bisa mendapatkan nilai 5 kartu dengan kombinasi seri / staright dengan kembang yang sama tetapi kartu tersebut haruslah dimulai dari 10. contoh 10, Queen, Jack, King dan aces dengan kembang yang sama
  5. Super Royal flush adalah kondisi kartu dimana Kedua kartu anda digabung dengan 3 kartu pertama meja haruslah royal flush. contoh kartu anda 10,Queen kembang sama dan 3 kartu pertama meja adalah Jack, King dan aces dengan kembang yang sama

Demikian adalah penjelasan dari Multi Jackpot www.bapapoker.com terima kasih dan selamat bermain salam hoki dari kami

Texas Poker Jackpot Winner

TOP SUPER ROYAL FLUSH
No.TanggalNamaPriceWin
124/11 20:20DEVLONARISuper Royal flush3,000,000
224/11 15:45BALAPMOBILSuper Royal flush15,000,000
324/11 14:22RFUWSuper Royal flush60,000,000
424/11 11:02ARCIL420Super Royal flush3,000,000
524/11 06:38WID_RAU99Super Royal flush3,000,000
TOP ROYAL FLUSH
No.TanggalNamaPriceWin
125/11 01:34E6C68F5DRoyal flush1,000,000
225/11 01:34AAKHAFGH84Royal flush1,000,000
325/11 01:09MABORA15Royal flush5,000,000
425/11 00:40GILBERTGRoyal flush5,000,000
525/11 00:39MAE135Royal flush2,000,000
TOP STRAIGHT FLUSH
No.TanggalNamaPriceWin
125/11 01:33MALEHOI3Straight Flush600,000
225/11 01:33B0NC33__LStraight Flush120,000
325/11 01:29LALAN1234Straight Flush240,000
425/11 01:27BUNTUIK23Straight Flush60,000
525/11 01:27UTYADJEStraight Flush600,000
LATEST JACKPOT
No.TanggalNamaPriceWin
125/11 01:35EXPOZFull House5,000
225/11 01:35CHEKLIS5Full House1,000
325/11 01:35BOHELL22Full House10,000
425/11 01:35DENHOKIASFull House2,000
525/11 01:35ANOM1999Full House2,000
625/11 01:35CC7B3FE2Full House500
725/11 01:35SUMAR53Full House5,000
825/11 01:35MARTELMANFull House10,000
925/11 01:35SIROJUL2Full House2,000
1025/11 01:35BIDJIFull House2,000
1125/11 01:35NIAGAMBFull House2,000
1225/11 01:35L3F1Full House10,000
1325/11 01:35JARCO1981Full House5,000
1425/11 01:35WALUUUUHFull House500
1525/11 01:35KAJOLZZFour Of A Kind50,000
1625/11 01:35SASA9988Full House20,000
1725/11 01:35GTCOY778Full House5,000
1825/11 01:35BUDIK13Full House2,000
1925/11 01:35XHOOKIXFull House5,000
2025/11 01:35KORUT00Full House5,000
2125/11 01:35ANIN2016Full House1,000
2225/11 01:35PLUKK_30Full House10,000
2325/11 01:35JABANG46Full House500
2425/11 01:35SPIDER456Full House10,000
2525/11 01:35PASKIN11Full House5,000
2625/11 01:35AKASIA16Full House1,000
2725/11 01:35CUT1206Full House5,000
2825/11 01:35SEMOGAJPAFull House2,000
2925/11 01:35NEDDY07Full House2,000
3025/11 01:35BAGEGGG8Full House1,000
3125/11 01:35ONGOL12345Full House2,000
3225/11 01:35VICHIIFull House500
3325/11 01:35BRANDALZ37Four Of A Kind125,000
3425/11 01:35SASIK4Full House5,000
3525/11 01:35DEMITEMPANFull House2,000
3625/11 01:35DEWALOH12Full House2,000
3725/11 01:35LEMBOK1234Full House1,000
3825/11 01:34BANDIT1984Full House2,000
3925/11 01:34SHOPIAA9Full House2,000
4025/11 01:34EXA28Full House1,000
4125/11 01:34KONKON87Full House5,000
4225/11 01:34MARSHA666Full House10,000
4325/11 01:34ITECH76Four Of A Kind25,000
4425/11 01:34MANURUNG22Full House20,000
4525/11 01:34IW3JQ23811Full House20,000
4625/11 01:34ALAY_TAIFull House5,000
4725/11 01:34CUTIAHFull House5,000
4825/11 01:34WEDE5JTAFull House5,000
4925/11 01:34PONDRA212Full House2,000
5025/11 01:34EBOL02Full House10,000

Domino Multi Jackpot System

Ikutilah global jackpot yang tersedia di system kami, dengan system jackpot terbaru dan pertama di indonesia, anda dapat membeli jackpot dengan harga 100 rupiah saja dan menangkan hadiahnya hingga puluhan juta rupiah.

Jackpot bukanlah suatu keharusan untuk dibeli, namun kami memberikan suatu fitur tambahan untuk member tercinta dari www.bapapoker.com.

Terdapat tiga pilihan harga jackpot yang bisa anda beli yaitu :100,500 dan 1000 rupiah.

Hadiah dari Multi jackpot system www.bapapoker.com

  1. Murni Kecil x 50 harga jackpot yang anda beli.
      (contoh:anda membeli 1000 maka:1000 X 50 = 50.000)
  2. Murni Besar x 50 harga jackpot yang anda beli
      (contoh:anda membeli 1000 maka:1000 X 50 = 50.000)
  3. BALAK x 100 harga jackpot yang anda beli
      (contoh:anda membeli 1000 maka:1000 X 100 = 100.000)
  4. ENAM DEWA x 6666 harga jackpot yang anda beli
      (contoh:anda membeli 1000 maka:1000 X 6666 = 6.666.000)

Demikian adalah penjelasan dari Multi Jackpot www.bapapoker.com terima kasih dan selamat bermain salam hoki dari kami

Domino Jackpot Winner

TOP ENAM DEWA
No.TanggalNamaPriceWin
125/11 00:21MENYUNSUROmurni enam666,600
224/11 22:15CARSAD09murni enam6,666,000
324/11 21:54XGAJNEUOQVmurni enam6,666,000
424/11 21:41SADOYO01murni enam6,666,000
524/11 20:47REYDO66murni enam6,666,000
TOP BALAK
No.TanggalNamaPriceWin
125/11 01:34D3NBAGUS99balak100,000
225/11 01:33JUARA__54balak50,000
325/11 01:32CAKYAbalak10,000
425/11 01:31RTH019balak50,000
525/11 01:29BENTCObalak100,000
LATEST JACKPOT
No.TanggalNamaPriceWin
125/11 01:35PWWWmurni kecil50,000
225/11 01:35BOMBASXXmurni besar50,000
325/11 01:34D3NBAGUS99balak100,000
425/11 01:34KEMSUY696murni besar25,000
525/11 01:33JUARA__54balak50,000
625/11 01:32MBRODOL99murni kecil25,000
725/11 01:32CAKYAbalak10,000
825/11 01:32UCOKGAUL26murni kecil50,000
925/11 01:31RTH019balak50,000
1025/11 01:31GALASAmurni kecil50,000
1125/11 01:30RIZAL1986murni kecil50,000
1225/11 01:30KAYA575859murni besar50,000
1325/11 01:30DWBTARID21murni besar5,000
1425/11 01:29JANDA989murni besar50,000
1525/11 01:29WYMODSMP7Cmurni kecil25,000
1625/11 01:29DJ__LUCKYmurni besar50,000
1725/11 01:29BENTCObalak100,000
1825/11 01:28BREGGENmurni besar50,000
1925/11 01:28RIAN720murni besar50,000
2025/11 01:28PABOTORO29murni besar50,000
2125/11 01:27BATIGOL_69murni besar25,000
2225/11 01:27COMEBACK99murni kecil25,000
2325/11 01:26AYUNDA6666balak100,000
2425/11 01:26LUBIS67murni kecil5,000
2525/11 01:26MUNGAREP88lucky9950,000
2625/11 01:26KASMURI12murni besar25,000
2725/11 01:25IDUT666murni kecil25,000
2825/11 01:255821murni besar5,000
2925/11 01:25VANELVINmurni kecil50,000
3025/11 01:25X1FLWTCXHQmurni kecil5,000
3125/11 01:25TAS99murni besar50,000
3225/11 01:25FORTUNA272lucky9910,000
3325/11 01:24JABREK88murni besar5,000
3425/11 01:24PALSANDY08murni kecil50,000
3525/11 01:24DENISRbalak100,000
3625/11 01:24Y0G401balak50,000
3725/11 01:23DWBTARID21murni kecil5,000
3825/11 01:22GO10balak100,000
3925/11 01:22TRIMPSmurni kecil5,000
4025/11 01:22MAGNET34murni kecil50,000
4125/11 01:21TOWTOM12balak50,000
4225/11 01:21PAIJO7RUHmurni besar5,000
4325/11 01:21FEEPEQbalak10,000
4425/11 01:21DENISRmurni besar50,000
4525/11 01:21ANIV06murni besar50,000
4625/11 01:20DYMMA90murni besar5,000
4725/11 01:20ASUNARYOUmurni kecil25,000
4825/11 01:20TAS99murni kecil50,000
4925/11 01:20KOWWDOKmurni kecil25,000
5025/11 01:19C3MJ01murni besar5,000

Ceme Multi Jackpot System

Jackpot dilihat dari gabungan kartu pemain dengan kartu bandar. Bandar harus membeli jackpot sebanyak jumlah player yang sedang duduk. Sebagai contoh bila terdapat 3 pemain duduk bermain, dan bandar memutuskan untuk membeli jackpot Rp 1.000, maka pada periode tersebut bandar akan membeli jackpot sebanyak 3xRp1.000 = Rp3.000.

Jackpot bukanlah suatu keharusan untuk dibeli, namun kami memberikan suatu fitur tambahan untuk member tercinta dari www.bapapoker.com.

Terdapat tiga pilihan harga jackpot yang bisa anda beli yaitu :100,500 dan 1000 rupiah.

Hadiah dari Multi jackpot system www.bapapoker.com

  1. Murni Kecil x 50 harga jackpot yang anda beli.
      (contoh:anda membeli 1000 maka:1000 X 50 = 50.000)
  2. Murni Besar x 50 harga jackpot yang anda beli
      (contoh:anda membeli 1000 maka:1000 X 50 = 50.000)
  3. BALAK x 200 harga jackpot yang anda beli
      (contoh:anda membeli 1000 maka:1000 X 200 = 200.000)
  4. ENAM DEWA x 6666 harga jackpot yang anda beli
      (contoh:anda membeli 1000 maka:1000 X 6666 = 6.666.000)

Demikian adalah penjelasan dari Multi Jackpot www.bapapoker.com terima kasih dan selamat bermain salam hoki dari kami

Ceme Jackpot Winner

TOP ENAM DEWA
No.TanggalNamaPriceWin
125/11 01:16STICKMAmurni enam6,666,000
225/11 01:16ROSMWRmurni enam3,333,000
325/11 00:12PLGEVTIAL1972murni enam6,666,000
425/11 00:00T17269166DABS3Omurni enam3,333,000
524/11 23:34SLAYER4646murni enam3,333,000
TOP BALAK
No.TanggalNamaPriceWin
125/11 01:35ADIBAWENAbalak100,000
225/11 01:35UMIEVAbalak20,000
325/11 01:33VEBI74balak20,000
425/11 01:33IXKC0GGG09balak100,000
525/11 01:33RAJA3_3balak20,000
LATEST JACKPOT
No.TanggalNamaPriceWin
125/11 01:35ADIBAWENAbalak100,000
225/11 01:35YL2WR2U54Fmurni kecil50,000
325/11 01:35DFC2D8ACmurni kecil5,000
425/11 01:35UMIEVAbalak20,000
525/11 01:35YOGASANDYmurni besar50,000
625/11 01:35AYYUNK44murni besar50,000
725/11 01:34HOKILAAmurni kecil50,000
825/11 01:34LET4K1ANmurni kecil25,000
925/11 01:34STICKMAmurni kecil50,000
1025/11 01:34RAMPOKU9murni kecil25,000
1125/11 01:33WIWIT101murni besar50,000
1225/11 01:33KOPILAWASmurni kecil25,000
1325/11 01:33GOBANG79murni kecil50,000
1425/11 01:33VEBI74balak20,000
1525/11 01:33KIPEMASOKmurni kecil50,000
1625/11 01:33TOWTOM12murni kecil5,000
1725/11 01:33IXKC0GGG09balak100,000
1825/11 01:33RAJA3_3balak20,000
1925/11 01:33E22C9482murni kecil5,000
2025/11 01:33CEMPEDESmurni kecil25,000
2125/11 01:33QQRIO97murni kecil25,000
2225/11 01:33L1MP070788murni kecil5,000
2325/11 01:32MBEN234murni besar25,000
2425/11 01:32A7P7K99balak200,000
2525/11 01:32XXXIRAXXXbalak100,000
2625/11 01:32JANGKRIX99murni kecil50,000
2725/11 01:32ARCHER50murni besar5,000
2825/11 01:32CASSERmurni besar50,000
2925/11 01:32SHAKY08murni kecil5,000
3025/11 01:32HUTAN19murni besar50,000
3125/11 01:32BAAL60murni besar5,000
3225/11 01:32ANSORI00murni besar25,000
3325/11 01:32BAIIIIIM29murni besar5,000
3425/11 01:32BP882040murni besar50,000
3525/11 01:32RENSAROMPmurni besar25,000
3625/11 01:32CORLEONE19murni kecil50,000
3725/11 01:32KAONG006murni kecil5,000
3825/11 01:32ACHMAD2688murni besar50,000
3925/11 01:31CORET27murni kecil5,000
4025/11 01:31QQRIO97murni kecil25,000
4125/11 01:31CSPJHUK3VUmurni kecil5,000
4225/11 01:31PETEBAUAHbalak100,000
4325/11 01:31PASIHAR22murni besar5,000
4425/11 01:31TLE77murni kecil50,000
4525/11 01:31AGUNGCHOCOmurni kecil50,000
4625/11 01:31MINCHULmurni kecil50,000
4725/11 01:31KALERA_55murni kecil50,000
4825/11 01:31TTWINSmurni kecil5,000
4925/11 01:31PABLODmurni kecil25,000
5025/11 01:31CAXERmurni besar50,000